createdAt,value
2017-11-23T00:00:21.246Z,80.03
2017-11-23T00:02:47.681Z,79.49
2017-11-23T00:05:14.117Z,79.36
2017-11-23T00:07:40.550Z,79.20
2017-11-23T00:10:06.986Z,79.00
2017-11-23T00:12:34.137Z,78.75
2017-11-23T00:15:00.572Z,78.71
2017-11-23T00:17:27.006Z,78.80
2017-11-23T00:19:53.441Z,78.70
2017-11-23T00:22:19.874Z,78.66
2017-11-23T00:24:46.309Z,78.81
2017-11-23T00:27:12.749Z,78.77
2017-11-23T00:29:39.891Z,78.96
2017-11-23T00:32:06.332Z,78.91
2017-11-23T00:34:32.699Z,79.11
2017-11-23T00:36:59.069Z,79.33
2017-11-23T00:39:25.542Z,79.52
2017-11-23T00:41:52.078Z,79.74
2017-11-23T00:44:18.505Z,80.01
2017-11-23T00:46:45.557Z,80.15
2017-11-23T00:49:11.987Z,80.37
2017-11-23T00:51:38.433Z,80.55
2017-11-23T00:54:04.866Z,80.76
2017-11-23T00:56:31.290Z,80.87
2017-11-23T00:58:57.742Z,81.02
2017-11-23T01:01:24.264Z,81.16
2017-11-23T01:03:51.402Z,81.54
2017-11-23T01:06:17.853Z,82.01
2017-11-23T01:08:44.283Z,82.44
2017-11-23T01:11:10.717Z,82.67
2017-11-23T01:13:37.152Z,82.90
2017-11-23T01:16:03.596Z,83.08
2017-11-23T01:18:30.032Z,83.01
2017-11-23T01:20:57.178Z,82.92
2017-11-23T01:23:23.505Z,82.99
2017-11-23T01:25:50.033Z,83.14
2017-11-23T01:28:16.477Z,83.34
2017-11-23T01:30:42.848Z,83.63
2017-11-23T01:33:09.210Z,83.64
2017-11-23T01:35:35.579Z,83.58
2017-11-23T01:38:02.821Z,83.58
2017-11-23T01:40:29.273Z,83.69
2017-11-23T01:42:55.699Z,83.66
2017-11-23T01:45:22.235Z,83.70
2017-11-23T01:47:48.671Z,83.63
2017-11-23T01:50:15.114Z,83.78
2017-11-23T01:52:41.541Z,83.56
2017-11-23T01:55:08.698Z,83.17
2017-11-23T01:57:35.138Z,83.07
2017-11-23T02:00:01.570Z,82.93
2017-11-23T02:02:27.996Z,82.86
2017-11-23T02:04:54.434Z,82.70
2017-11-23T02:07:20.866Z,82.42
2017-11-23T02:09:47.309Z,82.28
2017-11-23T02:12:14.552Z,81.84
2017-11-23T02:14:40.988Z,81.55
2017-11-23T02:17:07.422Z,81.69
2017-11-23T02:19:33.857Z,81.77
2017-11-23T02:22:00.303Z,81.85
2017-11-23T02:24:26.726Z,81.82
2017-11-23T02:26:53.161Z,81.59
2017-11-23T02:29:20.317Z,80.95
2017-11-23T02:31:46.749Z,80.59
2017-11-23T02:34:13.182Z,80.35
2017-11-23T02:36:39.505Z,80.17
2017-11-23T02:39:05.949Z,79.83
2017-11-23T02:41:32.383Z,79.60
2017-11-23T02:43:58.820Z,79.66
2017-11-23T02:46:26.080Z,79.77
2017-11-23T02:48:52.508Z,79.92
2017-11-23T02:51:18.948Z,80.29
2017-11-23T02:53:45.383Z,80.29
2017-11-23T02:56:11.816Z,80.10
2017-11-23T02:58:38.254Z,80.12
2017-11-23T03:01:04.652Z,80.23
2017-11-23T03:03:31.729Z,80.12
2017-11-23T03:05:58.265Z,80.11
2017-11-23T03:08:24.701Z,79.48
2017-11-23T03:10:51.146Z,79.27
2017-11-23T03:13:17.469Z,78.41
2017-11-23T03:15:44.005Z,77.61
2017-11-23T03:18:10.441Z,77.72
2017-11-23T03:20:37.490Z,77.74
2017-11-23T03:23:04.026Z,77.65
2017-11-23T03:25:30.459Z,77.65
2017-11-23T03:27:56.827Z,76.51
2017-11-23T03:30:23.227Z,76.47
2017-11-23T03:32:49.669Z,76.42
2017-11-23T03:35:16.095Z,76.53
2017-11-23T03:37:43.335Z,76.67
2017-11-23T03:40:09.787Z,76.79
2017-11-23T03:42:36.218Z,77.06
2017-11-23T03:45:02.652Z,77.21
2017-11-23T03:47:29.087Z,77.53
2017-11-23T03:49:55.520Z,77.84
2017-11-23T03:52:21.966Z,78.12
2017-11-23T03:54:49.108Z,78.10
2017-11-23T03:57:15.531Z,78.20
2017-11-23T03:59:41.912Z,78.23
2017-11-23T04:02:08.309Z,78.30
2017-11-23T04:04:34.744Z,78.30
2017-11-23T04:07:01.178Z,78.23
2017-11-23T04:09:27.551Z,78.13
2017-11-23T04:11:54.749Z,78.19
2017-11-23T04:14:21.199Z,78.24
2017-11-23T04:16:47.633Z,78.21
2017-11-23T04:19:14.069Z,78.25
2017-11-23T04:21:40.503Z,78.69
2017-11-23T04:24:06.939Z,78.69
2017-11-23T04:26:33.372Z,78.92
2017-11-23T04:29:00.524Z,79.07
2017-11-23T04:31:26.958Z,79.23
2017-11-23T04:33:53.393Z,79.31
2017-11-23T04:36:19.829Z,79.84
2017-11-23T04:38:46.262Z,80.80
2017-11-23T04:41:12.699Z,80.88
2017-11-23T04:43:39.141Z,81.24
2017-11-23T04:46:06.293Z,81.25
2017-11-23T04:48:32.716Z,81.29
2017-11-23T04:50:59.161Z,81.51
2017-11-23T04:53:25.594Z,81.83
2017-11-23T04:55:52.021Z,81.78
2017-11-23T04:58:18.456Z,81.77
2017-11-23T05:00:44.835Z,81.79
2017-11-23T05:03:12.050Z,81.91
2017-11-23T05:05:38.485Z,82.00
2017-11-23T05:08:04.911Z,82.16
2017-11-23T05:10:31.346Z,82.25
2017-11-23T05:12:57.781Z,82.44
2017-11-23T05:15:24.215Z,82.59
2017-11-23T05:17:50.650Z,82.74
2017-11-23T05:20:17.781Z,82.90
2017-11-23T05:22:44.222Z,82.88
2017-11-23T05:25:10.665Z,82.82
2017-11-23T05:27:37.105Z,82.63
2017-11-23T05:30:03.548Z,82.71
2017-11-23T05:32:30.179Z,82.77
2017-11-23T05:34:56.613Z,82.98
2017-11-23T05:37:23.772Z,83.12
2017-11-23T05:39:50.208Z,83.18
2017-11-23T05:42:16.635Z,83.18
2017-11-23T05:44:43.069Z,83.22
2017-11-23T05:47:09.502Z,83.31
2017-11-23T05:49:35.939Z,83.53
2017-11-23T05:52:02.372Z,83.64
2017-11-23T05:54:29.626Z,83.58
2017-11-23T05:56:56.061Z,83.60
2017-11-23T05:59:22.764Z,83.17
2017-11-23T06:01:49.238Z,83.01
2017-11-23T06:04:15.680Z,83.21
2017-11-23T06:06:42.211Z,83.31
2017-11-23T06:09:08.953Z,83.28
2017-11-23T06:11:35.389Z,83.19
2017-11-23T06:14:01.822Z,82.99
2017-11-23T06:16:28.375Z,82.79
2017-11-23T06:18:54.801Z,82.52
2017-11-23T06:21:22.033Z,82.39
2017-11-23T06:23:48.485Z,82.01
2017-11-23T06:26:14.924Z,81.87
2017-11-23T06:28:42.476Z,81.63
2017-11-23T06:31:08.919Z,81.30
2017-11-23T06:33:35.347Z,81.07
2017-11-23T06:36:01.716Z,80.73
2017-11-23T06:38:28.249Z,80.45
2017-11-23T06:40:54.650Z,79.93
2017-11-23T06:43:21.093Z,79.70
2017-11-23T06:45:47.421Z,79.62
2017-11-23T06:48:14.371Z,79.48
2017-11-23T06:50:40.807Z,79.15
2017-11-23T06:53:07.231Z,78.60
2017-11-23T06:55:33.672Z,78.35
2017-11-23T06:58:00.109Z,77.97
2017-11-23T07:00:26.572Z,77.51
2017-11-23T07:02:52.955Z,76.83
2017-11-23T07:05:19.404Z,76.47
2017-11-23T07:07:45.839Z,75.96
2017-11-23T07:10:12.795Z,75.53
2017-11-23T07:12:39.220Z,75.12
2017-11-23T07:15:05.656Z,74.45
2017-11-23T07:17:32.995Z,73.59
2017-11-23T07:19:59.446Z,73.26
2017-11-23T07:22:26.085Z,72.77
2017-11-23T07:24:52.794Z,72.54
2017-11-23T07:27:19.672Z,72.46
2017-11-23T07:29:46.220Z,72.14
2017-11-23T07:32:12.643Z,71.95
2017-11-23T07:34:39.319Z,71.63
2017-11-23T07:37:05.892Z,71.10
2017-11-23T07:39:32.357Z,70.75
2017-11-23T07:41:58.800Z,69.96
2017-11-23T07:44:25.257Z,69.49
2017-11-23T07:46:51.662Z,69.32
2017-11-23T07:49:18.405Z,69.42
2017-11-23T07:51:44.809Z,69.07
2017-11-23T07:54:11.278Z,68.86
2017-11-23T07:56:37.707Z,68.62
2017-11-23T07:59:04.141Z,68.04
2017-11-23T08:01:30.853Z,67.81
2017-11-23T08:03:57.326Z,67.59
2017-11-23T08:06:24.161Z,67.00
2017-11-23T08:08:50.596Z,66.69
2017-11-23T08:11:17.142Z,66.24
2017-11-23T08:13:44.285Z,63.75
2017-11-23T08:16:10.876Z,64.21
2017-11-23T08:18:37.336Z,63.70
2017-11-23T08:21:04.202Z,62.39
2017-11-23T08:23:31.021Z,61.73
2017-11-23T08:25:57.464Z,60.66
2017-11-23T08:28:24.019Z,59.39
2017-11-23T08:30:50.564Z,59.29
2017-11-23T08:33:17.200Z,59.01
2017-11-23T08:35:43.903Z,59.09
2017-11-23T08:38:10.382Z,58.76
2017-11-23T08:40:36.853Z,58.37
2017-11-23T08:43:04.295Z,57.99
2017-11-23T08:45:30.807Z,58.47
2017-11-23T08:47:57.979Z,55.50
2017-11-23T08:50:25.610Z,55.97
2017-11-23T08:52:52.473Z,56.42
2017-11-23T08:55:19.249Z,56.78
2017-11-23T08:57:46.301Z,56.20
2017-11-23T09:00:13.001Z,56.63
2017-11-23T09:02:39.430Z,56.61
2017-11-23T09:05:06.069Z,56.54
2017-11-23T09:07:32.716Z,57.01
2017-11-23T09:10:00.172Z,56.76
2017-11-23T09:12:27.218Z,56.69
2017-11-23T09:14:53.835Z,56.42
2017-11-23T09:17:20.504Z,55.71
2017-11-23T09:19:47.481Z,55.87
2017-11-23T09:22:14.293Z,55.83
2017-11-23T09:24:41.037Z,56.06
2017-11-23T09:27:08.290Z,55.72
2017-11-23T09:29:34.930Z,55.15
2017-11-23T09:32:01.568Z,54.93
2017-11-23T09:34:29.180Z,55.70
2017-11-23T09:36:55.817Z,55.50
2017-11-23T09:39:22.517Z,56.05
2017-11-23T09:41:49.451Z,56.08
2017-11-23T09:44:15.997Z,55.67
2017-11-23T09:46:42.727Z,55.63
2017-11-23T09:49:09.372Z,56.62
2017-11-23T09:51:35.871Z,55.57
2017-11-23T09:54:02.339Z,56.24
2017-11-23T09:56:29.081Z,55.91
2017-11-23T09:58:55.524Z,56.55
2017-11-23T10:01:21.950Z,56.63
2017-11-23T10:03:48.860Z,56.42
2017-11-23T10:06:15.331Z,56.14
2017-11-23T10:08:41.875Z,56.96
2017-11-23T10:11:08.787Z,57.10
2017-11-23T10:13:35.249Z,56.19
2017-11-23T10:16:01.669Z,56.36
2017-11-23T10:18:28.537Z,55.94
2017-11-23T10:20:55.073Z,56.14
2017-11-23T10:23:21.519Z,56.07
2017-11-23T10:25:48.240Z,55.37
2017-11-23T10:28:14.676Z,55.64
2017-11-23T10:30:41.213Z,55.77
2017-11-23T10:33:07.861Z,55.06
2017-11-23T10:35:34.290Z,55.24
2017-11-23T10:38:00.791Z,55.48
2017-11-23T10:40:27.363Z,55.24
2017-11-23T10:42:53.908Z,55.36
2017-11-23T10:45:20.429Z,55.27
2017-11-23T10:47:47.385Z,56.14
2017-11-23T10:50:13.927Z,55.20
2017-11-23T10:52:40.355Z,55.18
2017-11-23T10:55:07.198Z,54.19
2017-11-23T10:57:34.556Z,53.98
2017-11-23T11:00:01.101Z,54.36
2017-11-23T11:02:27.733Z,54.78
2017-11-23T11:04:54.790Z,53.88
2017-11-23T11:07:21.624Z,53.10
2017-11-23T11:09:48.575Z,52.94
2017-11-23T11:12:15.116Z,52.58
2017-11-23T11:14:41.652Z,52.22
2017-11-23T11:17:08.732Z,52.32
2017-11-23T11:19:35.344Z,52.55
2017-11-23T11:22:01.876Z,52.02
2017-11-23T11:24:28.722Z,51.20
2017-11-23T11:26:57.367Z,51.43
2017-11-23T11:29:26.468Z,50.49
2017-11-23T11:31:53.108Z,50.44
2017-11-23T11:34:19.470Z,50.16
2017-11-23T11:36:46.008Z,49.98
2017-11-23T11:39:12.935Z,49.20
2017-11-23T11:41:39.389Z,48.30
2017-11-23T11:44:05.823Z,49.00
2017-11-23T11:46:32.462Z,47.47
2017-11-23T11:48:59.764Z,47.84
2017-11-23T11:51:26.265Z,47.00
2017-11-23T11:53:53.200Z,46.42
2017-11-23T11:56:19.944Z,47.54
2017-11-23T11:58:46.692Z,48.21
2017-11-23T12:01:13.225Z,47.87
2017-11-23T12:03:40.585Z,47.72
2017-11-23T12:06:07.113Z,47.50
2017-11-23T12:08:33.652Z,47.30
2017-11-23T12:11:00.291Z,48.75
2017-11-23T12:13:26.929Z,49.16
2017-11-23T12:15:53.476Z,48.55
2017-11-23T12:18:20.210Z,47.76
2017-11-23T12:20:46.818Z,45.93
2017-11-23T12:23:13.384Z,44.00
2017-11-23T12:25:40.442Z,44.20
2017-11-23T12:28:07.075Z,43.22
2017-11-23T12:30:33.719Z,43.48
2017-11-23T12:33:00.456Z,43.52
2017-11-23T12:35:27.044Z,43.20
2017-11-23T12:37:53.482Z,43.93
2017-11-23T12:40:20.477Z,42.82
2017-11-23T12:42:47.121Z,41.17
2017-11-23T12:45:13.663Z,41.83
2017-11-23T12:47:40.840Z,42.25
2017-11-23T12:50:07.449Z,42.61
2017-11-23T12:52:33.864Z,42.62
2017-11-23T12:55:00.620Z,42.40
2017-11-23T12:57:27.054Z,42.39
2017-11-23T12:59:53.490Z,41.91
2017-11-23T13:02:19.933Z,41.65
2017-11-23T13:04:46.358Z,41.41
2017-11-23T13:07:13.203Z,40.28
2017-11-23T13:09:39.747Z,40.84
2017-11-23T13:12:06.695Z,41.31
2017-11-23T13:14:33.137Z,41.65
2017-11-23T13:16:59.965Z,41.50
2017-11-23T13:19:26.505Z,40.98
2017-11-23T13:21:52.938Z,40.32
2017-11-23T13:24:19.985Z,40.27
2017-11-23T13:26:46.736Z,39.84
2017-11-23T13:29:13.330Z,39.25
2017-11-23T13:36:43.511Z,37.64
2017-11-23T13:46:45.105Z,39.38
2017-11-23T13:49:11.675Z,39.81
2017-11-23T13:51:38.212Z,39.74
2017-11-23T13:54:04.684Z,40.23
2017-11-23T13:56:31.191Z,40.06
2017-11-23T13:58:57.720Z,40.44
2017-11-23T14:01:24.271Z,40.26
2017-11-23T14:03:51.376Z,40.10
2017-11-23T14:06:17.846Z,39.75
2017-11-23T14:08:44.175Z,40.00
2017-11-23T14:11:10.541Z,40.33
2017-11-23T14:13:37.054Z,40.38
2017-11-23T14:16:03.426Z,41.07
2017-11-23T14:18:30.017Z,42.50
2017-11-23T14:20:56.562Z,43.05
2017-11-23T14:23:22.988Z,43.36
2017-11-23T14:25:49.640Z,43.77
2017-11-23T14:28:16.882Z,44.36
2017-11-23T14:30:43.425Z,44.92
2017-11-23T14:33:09.997Z,45.98
2017-11-23T14:35:36.554Z,47.60
2017-11-23T14:38:03.030Z,48.93
2017-11-23T14:40:29.398Z,50.38
2017-11-23T14:42:55.871Z,51.60
2017-11-23T14:45:22.615Z,52.88
2017-11-23T14:47:49.442Z,54.18
2017-11-23T14:50:16.598Z,55.60
2017-11-23T14:52:43.295Z,56.82
2017-11-23T14:55:09.923Z,57.60
2017-11-23T15:02:39.228Z,60.33
2017-11-23T15:05:05.601Z,61.21
2017-11-23T15:07:32.045Z,62.03
2017-11-23T15:09:58.582Z,62.41
2017-11-23T15:12:25.008Z,62.66
2017-11-23T15:14:51.373Z,63.08
2017-11-23T15:17:17.714Z,63.68
2017-11-23T15:19:44.209Z,64.09
2017-11-23T15:22:10.651Z,64.40
2017-11-23T15:24:37.180Z,65.09
2017-11-23T15:27:03.581Z,65.85
2017-11-23T15:29:30.153Z,66.44
2017-11-23T15:31:56.588Z,66.72
2017-11-23T15:34:23.030Z,66.89
2017-11-23T15:36:49.434Z,67.17
2017-11-23T15:39:15.821Z,67.66
2017-11-23T15:41:42.412Z,67.79
2017-11-23T15:44:08.992Z,68.06
2017-11-23T15:46:35.593Z,68.35
2017-11-23T15:49:02.048Z,69.03
2017-11-23T15:51:28.484Z,69.27
2017-11-23T15:53:55.021Z,69.73
2017-11-23T15:56:21.447Z,70.86
2017-11-23T15:58:48.085Z,71.27
2017-11-23T16:01:16.132Z,71.22
2017-11-23T16:03:42.534Z,71.53
2017-11-23T16:06:09.002Z,71.77
2017-11-23T16:08:35.444Z,71.72
2017-11-23T16:23:38.620Z,73.76
2017-11-23T16:26:05.055Z,73.74
2017-11-23T16:28:31.490Z,73.99
2017-11-23T16:30:57.931Z,74.15
2017-11-23T16:33:24.492Z,74.75
2017-11-23T16:35:54.599Z,75.45
2017-11-23T16:38:21.025Z,75.51
2017-11-23T16:40:47.461Z,75.36
2017-11-23T16:43:13.895Z,75.32
2017-11-23T16:50:21.517Z,75.87
2017-11-23T16:55:43.776Z,76.50
2017-11-23T16:58:10.234Z,76.78
2017-11-23T17:00:36.647Z,76.78
2017-11-23T17:03:03.111Z,77.01
2017-11-23T17:05:29.626Z,77.05
2017-11-23T17:07:56.056Z,77.13
2017-11-23T17:16:05.836Z,76.95
2017-11-23T17:21:10.486Z,77.41
2017-11-23T17:23:36.928Z,77.33
2017-11-23T17:26:03.362Z,77.38
2017-11-23T17:31:06.156Z,78.69
2017-11-23T17:33:32.692Z,79.18
2017-11-23T17:38:45.940Z,78.90
2017-11-23T17:46:02.071Z,78.60
2017-11-23T17:54:56.485Z,79.47
2017-11-23T17:57:22.935Z,80.03
2017-11-23T18:01:27.774Z,80.59
2017-11-23T18:03:54.236Z,80.47
2017-11-23T18:06:20.652Z,80.25
2017-11-23T18:08:47.087Z,80.42
2017-11-23T18:11:13.420Z,80.57
2017-11-23T18:13:39.752Z,80.66
2017-11-23T18:22:21.387Z,80.00
2017-11-23T18:24:47.933Z,80.11
2017-11-23T18:27:14.359Z,80.74
2017-11-23T18:36:37.568Z,81.18
2017-11-23T19:04:18.537Z,82.73
2017-11-23T19:06:44.993Z,82.64
2017-11-23T19:11:52.177Z,82.05
2017-11-23T19:14:18.569Z,81.97
2017-11-23T19:21:51.442Z,82.37
2017-11-23T19:24:17.920Z,83.19
2017-11-23T19:26:44.370Z,83.54
2017-11-23T19:34:46.101Z,83.87
2017-11-23T19:37:12.530Z,83.86
2017-11-23T19:39:38.961Z,83.42
2017-11-23T19:42:05.396Z,83.05
2017-11-23T19:44:31.765Z,82.56
2017-11-23T19:53:45.608Z,81.72
2017-11-23T19:56:12.060Z,82.03
2017-11-23T19:58:38.498Z,82.72
2017-11-23T20:01:04.855Z,83.32
2017-11-23T20:07:59.652Z,83.25
2017-11-23T20:10:26.088Z,82.99
2017-11-23T20:18:09.770Z,82.86
2017-11-23T20:20:36.196Z,83.00
2017-11-23T20:28:53.877Z,82.83
2017-11-23T20:37:26.709Z,82.96
2017-11-23T20:42:31.763Z,82.80
2017-11-23T20:44:58.215Z,83.13
2017-11-23T20:53:04.767Z,84.13
2017-11-23T21:01:15.488Z,83.53
2017-11-23T21:06:29.893Z,84.06
2017-11-23T21:08:56.328Z,83.90
2017-11-23T21:11:22.868Z,83.73
2017-11-23T21:13:52.782Z,84.44
2017-11-23T21:16:19.216Z,84.36
2017-11-23T21:18:45.572Z,84.13
2017-11-23T21:21:11.999Z,83.81
2017-11-23T21:23:38.519Z,83.50
2017-11-23T21:26:04.947Z,83.09
2017-11-23T21:28:31.380Z,82.62
2017-11-23T21:30:57.711Z,82.68
2017-11-23T21:33:24.147Z,82.91
2017-11-23T21:35:50.613Z,83.21
2017-11-23T21:38:17.017Z,83.72
2017-11-23T21:40:43.349Z,83.79
2017-11-23T21:43:09.794Z,83.43
2017-11-23T21:45:36.186Z,83.33
2017-11-23T21:48:02.670Z,83.22
2017-11-23T21:50:29.839Z,83.24
2017-11-23T21:52:56.239Z,83.06
2017-11-23T21:55:22.682Z,83.20
2017-11-23T21:57:49.108Z,83.62
2017-11-23T22:00:15.546Z,83.83
2017-11-23T22:02:41.947Z,84.19
2017-11-23T22:05:08.381Z,84.34
2017-11-23T22:07:35.568Z,84.47
2017-11-23T22:10:01.898Z,84.70
2017-11-23T22:12:28.406Z,85.06
2017-11-23T22:14:54.876Z,85.63
2017-11-23T22:17:21.230Z,86.04
2017-11-23T22:19:47.633Z,86.05
2017-11-23T22:22:14.068Z,86.13
2017-11-23T22:24:41.220Z,85.87
2017-11-23T22:27:07.654Z,85.42
2017-11-23T22:29:34.089Z,84.94
2017-11-23T22:32:00.527Z,84.70
2017-11-23T22:34:26.968Z,84.37
2017-11-23T22:36:53.393Z,84.55
2017-11-23T22:39:19.828Z,84.82
2017-11-23T22:41:46.980Z,84.91
2017-11-23T22:44:13.423Z,84.97
2017-11-23T22:46:39.849Z,85.02
2017-11-23T22:49:06.289Z,85.36
2017-11-23T22:51:32.718Z,85.40
2017-11-23T22:53:59.161Z,85.14
2017-11-23T22:56:25.595Z,84.92
2017-11-23T22:58:52.849Z,84.35
2017-11-23T23:01:19.243Z,83.98
2017-11-23T23:03:45.718Z,83.88
2017-11-23T23:06:12.154Z,84.09
2017-11-23T23:13:02.669Z,84.64
2017-11-23T23:15:29.114Z,84.57
2017-11-23T23:17:55.544Z,84.25
2017-11-23T23:20:21.980Z,83.94
2017-11-23T23:22:48.422Z,83.91
2017-11-23T23:25:14.879Z,83.92
2017-11-23T23:27:41.282Z,83.59
2017-11-23T23:30:07.805Z,82.96
2017-11-23T23:32:34.257Z,82.89
2017-11-23T23:35:00.700Z,82.76
2017-11-23T23:37:27.115Z,83.02
2017-11-23T23:39:53.532Z,83.22
2017-11-23T23:47:33.045Z,83.32
2017-11-23T23:49:59.470Z,83.96
2017-11-23T23:52:25.904Z,84.67
2017-11-23T23:54:52.358Z,84.46
2017-11-23T23:57:18.773Z,83.93
2017-11-23T23:59:45.276Z,83.74
